Data for 07/16/2009

Time Sea-Level Adjusted Pressure Absolute Pressure Temperature Relative Humidity Dew Point   
(mb) (inHg) (mb) (inHg) (C) (F) (%) (C) (F)
00:05 1023 30.21 852 25.16 16.9 62.4 47 5.6 42.1
00:10 1023 30.21 852 25.16 17 62.6 49 6.3 43.3
00:15 1023 30.21 852 25.16 16.9 62.4 51 6.8 44.2
00:20 1023 30.21 853 25.19 16.9 62.3 52 7.1 44.8
00:25 1023 30.21 853 25.19 16.8 62.3 54 7.5 45.4
00:30 1023 30.21 853 25.19 16.9 62.4 54 7.7 45.9
00:35 1023 30.21 853 25.19 16.9 62.4 55 7.9 46.3
00:40 1024 30.24 853 25.19 16.9 62.4 56 8.1 46.5
00:45 1024 30.24 853 25.19 16.7 62.1 57 8.2 46.8
00:50 1024 30.24 853 25.19 16.5 61.7 59 8.5 47.3
00:55 1024 30.24 853 25.19 16.2 61.1 59 8.3 47
01:00 1024 30.24 853 25.19 15.9 60.7 60 8.2 46.8
01:05 1024 30.24 853 25.19 16.2 61.2 59 8.3 46.9
01:10 1024 30.24 853 25.19 16.3 61.4 60 8.5 47.4
01:15 1024 30.24 853 25.19 16.2 61.2 60 8.5 47.4
01:20 1024 30.24 853 25.19 16.2 61.1 61 8.8 47.8
01:25 1024 30.24 853 25.19 15.8 60.4 60 8.1 46.6
01:30 1024 30.24 853 25.19 15 59.1 64 8.4 47.2
01:35 1024 30.24 853 25.19 14.9 58.9 63 8 46.5
01:40 1024 30.24 853 25.19 14.8 58.7 64 8 46.5
01:45 1024 30.24 853 25.19 14.7 58.5 62 7.6 45.7
01:50 1024 30.24 853 25.19 14.5 58.1 63 7.7 45.8
01:55 1024 30.24 853 25.19 14.4 57.9 63 7.5 45.5
02:00 1024 30.24 853 25.19 14.3 57.8 64 7.6 45.7
02:05 1024 30.24 853 25.19 14.4 58 63 7.5 45.4
02:10 1024 30.24 853 25.19 14.3 57.7 63 7.5 45.4
02:15 1024 30.24 853 25.19 14 57.1 63 7.1 44.8
02:20 1024 30.24 853 25.19 14 57.3 64 7.4 45.3
02:25 1024 30.24 853 25.19 14 57.2 64 7.4 45.3
02:30 1024 30.24 853 25.19 14 57.1 68 8.2 46.7
02:35 1024 30.24 853 25.19 14.3 57.7 67 8.2 46.8
02:40 1024 30.24 853 25.19 14 57.2 67 8.1 46.5
02:45 1024 30.24 853 25.19 13.8 56.8 67 7.9 46.2
02:50 1024 30.24 853 25.19 13.7 56.6 68 8 46.4
02:55 1024 30.24 853 25.19 13.6 56.5 68 7.9 46.3
03:00 1024 30.24 853 25.19 13.5 56.3 68 7.8 46.1
03:05 1024 30.24 853 25.19 13.4 56.2 69 7.8 46
03:10 1024 30.24 853 25.19 13.5 56.3 69 7.9 46.1
03:15 1024 30.24 853 25.19 13.6 56.5 67 7.7 45.9
03:20 1024 30.24 853 25.19 13.6 56.5 67 7.6 45.8
03:25 1024 30.24 853 25.19 13.6 56.6 66 7.4 45.4
03:30 1024 30.24 853 25.19 13.6 56.5 67 7.8 46
03:35 1024 30.24 853 25.19 13.7 56.6 68 7.9 46.2
03:40 1024 30.24 853 25.19 13.7 56.7 67 7.7 45.8
03:45 1024 30.24 853 25.19 13.8 56.8 66 7.5 45.4
03:50 1024 30.24 853 25.19 13.7 56.6 66 7.5 45.4
03:55 1024 30.24 853 25.19 13.5 56.3 66 7.4 45.3
04:00 1024 30.24 853 25.19 13.2 55.7 68 7.6 45.6
04:05 1024 30.24 853 25.19 13.2 55.7 68 7.5 45.5
04:10 1024 30.24 853 25.19 13.2 55.7 68 7.5 45.5
04:15 1024 30.24 853 25.19 13.1 55.5 70 7.7 45.9
04:20 1024 30.24 853 25.19 13 55.4 68 7.3 45.1
04:25 1024 30.24 853 25.19 12.9 55.1 70 7.5 45.5
04:30 1024 30.24 853 25.19 12.9 55.3 68 7.2 45
04:35 1024 30.24 853 25.19 12.9 55.2 68 7.3 45.1
04:40 1024 30.24 853 25.19 12.9 55.2 69 7.3 45.1
04:45 1024 30.24 853 25.19 12.7 54.9 71 7.6 45.7
04:50 1024 30.24 853 25.19 12.7 54.9 70 7.5 45.5
04:55 1024 30.24 853 25.19 12.8 55 70 7.5 45.5
05:00 1024 30.24 853 25.19 12.7 54.9 71 7.7 45.9
05:05 1024 30.24 853 25.19 12.6 54.6 72 7.7 45.9
05:10 1024 30.24 853 25.19 12.5 54.5 73 7.8 46.1
05:15 1024 30.24 853 25.19 12.6 54.7 72 7.8 46
05:20 1024 30.24 853 25.19 12.6 54.8 73 8 46.4
05:25 1024 30.24 854 25.22 12.5 54.5 73 7.8 46.1
05:30 1024 30.24 854 25.22 12.3 54.2 73 7.7 45.8
05:35 1024 30.24 854 25.22 12.3 54.1 73 7.5 45.6
05:40 1025 30.27 854 25.22 12.4 54.2 72 7.5 45.5
05:45 1025 30.27 854 25.22 12.3 54.2 72 7.4 45.3
05:50 1025 30.27 854 25.22 12.2 54 72 7.4 45.4
05:55 1025 30.27 854 25.22 12.3 54.1 72 7.4 45.4
06:00 1025 30.27 854 25.22 12.3 54.1 71 7.2 45
06:05 1025 30.27 854 25.22 12.2 54 71 7.2 45
06:10 1025 30.27 854 25.22 12.2 53.9 71 7 44.6
06:15 1025 30.27 854 25.22 12 53.7 72 7.2 44.9
06:20 1025 30.27 854 25.22 12.3 54.1 70 7.1 44.8
06:25 1025 30.27 854 25.22 12.5 54.4 70 7.1 44.8
06:30 1025 30.27 854 25.22 12.6 54.6 69 7 44.6
06:35 1025 30.27 854 25.22 12.7 54.8 67 6.8 44.3
06:40 1025 30.27 854 25.22 12.7 54.9 67 6.7 44.1
06:45 1025 30.27 854 25.22 12.6 54.8 66 6.5 43.7
06:50 1025 30.27 854 25.22 12.7 54.9 65 6.4 43.5
06:55 1025 30.27 854 25.22 12.7 54.9 65 6.3 43.3
07:00 1025 30.27 854 25.22 12.8 55 64 6.3 43.3
07:05 1025 30.27 854 25.22 12.8 55 63 5.9 42.6
07:10 1025 30.27 854 25.22 13.1 55.6 62 6 42.7
07:15 1025 30.27 854 25.22 13.8 56.9 58 5.7 42.2
07:20 1025 30.27 854 25.22 14.4 57.9 58 6.2 43.2
07:25 1025 30.27 854 25.22 14.8 58.6 59 6.8 44.2
07:30 1025 30.27 854 25.22 14.7 58.4 59 6.9 44.5
07:35 1025 30.27 854 25.22 14.8 58.6 59 7 44.6
07:40 1025 30.27 854 25.22 15.1 59.1 58 7 44.5
07:45 1025 30.27 854 25.22 15.4 59.7 56 6.8 44.2
07:50 1025 30.27 854 25.22 15.1 59.3 58 7 44.7
07:55 1025 30.27 854 25.22 15.3 59.5 58 7.2 44.9
08:00 1025 30.27 854 25.22 15.6 60 57 7.1 44.7
08:05 1025 30.27 854 25.22 15.9 60.7 56 7.4 45.3
08:10 1025 30.27 854 25.22 16.5 61.8 55 7.5 45.5
08:15 1025 30.27 854 25.22 17.1 62.7 53 7.6 45.7
08:20 1025 30.27 854 25.22 17.2 62.9 55 8.1 46.6
08:25 1025 30.27 854 25.22 17.3 63.1 53 7.7 45.8
08:30 1025 30.27 854 25.22 17.5 63.4 54 8.2 46.7
08:35 1025 30.27 854 25.22 17.7 63.8 53 8.1 46.6
08:40 1025 30.27 855 25.25 17.7 63.9 54 8.4 47.1
08:45 1025 30.27 855 25.25 18.1 64.6 51 8.1 46.5
08:50 1025 30.27 855 25.25 18.3 65 51 8.2 46.8
08:55 1025 30.27 855 25.25 19.2 66.6 48 8.1 46.5
09:00 1025 30.27 855 25.25 19.7 67.4 46 8 46.4
09:05 1025 30.27 855 25.25 20 67.9 39 5.9 42.6
09:10 1025 30.27 854 25.22 20.3 68.5 38 5.8 42.4
09:15 1025 30.27 855 25.25 21.1 69.9 39 6.9 44.3
09:20 1025 30.27 855 25.25 20.8 69.5 40 6.8 44.2
09:25 1025 30.27 855 25.25 20.6 69.1 39 6.4 43.5
09:30 1025 30.27 855 25.25 20.7 69.3 37 5.5 41.9
09:35 1025 30.27 855 25.25 21.6 70.9 33 4.6 40.3
09:40 1025 30.27 855 25.25 22 71.5 33 4.9 40.9
09:45 1025 30.27 855 25.25 21.5 70.7 36 6.1 43
09:50 1025 30.27 855 25.25 21.1 70 36 5.6 42.1
09:55 1025 30.27 855 25.25 21.5 70.7 34 5.1 41.2
10:00 1025 30.27 855 25.25 22.2 72 33 5.4 41.6
10:05 1025 30.27 855 25.25 22.6 72.7 34 6.2 43.1
10:10 1025 30.27 855 25.25 22.9 73.1 33 5.9 42.6
10:15 1025 30.27 855 25.25 22.8 73 37 7.6 45.7
10:20 1025 30.27 855 25.25 22 71.5 38 7 44.7
10:25 1025 30.27 854 25.22 21.9 71.3 40 7.8 46.1
10:30 1025 30.27 855 25.25 22.3 72.1 35 6.2 43.1
10:35 1025 30.27 855 25.25 21.7 71.1 37 6.8 44.2
10:40 1025 30.27 855 25.25 21.6 70.8 39 7 44.6
10:45 1025 30.27 855 25.25 21.5 70.6 34 5 41
10:50 1025 30.27 855 25.25 21.8 71.2 33 5.1 41.2
10:55 1025 30.27 855 25.25 22.4 72.2 33 5.3 41.5
11:00 1025 30.27 855 25.25 22.6 72.6 33 5.8 42.5
11:05 1025 30.27 855 25.25 22.4 72.3 34 5.9 42.6
11:10 1025 30.27 855 25.25 22.4 72.4 32 5 41
11:15 1025 30.27 855 25.25 22.9 73.3 30 4.5 40.2
11:20 1025 30.27 855 25.25 23.2 73.8 31 5.2 41.4
11:25 1025 30.27 855 25.25 23.5 74.3 29 4.6 40.3
11:30 1025 30.27 855 25.25 24.7 76.4 29 5.7 42.2
11:35 1025 30.27 855 25.25 24.4 76 29 5.3 41.5
11:40 1025 30.27 855 25.25 25.3 77.6 28 5.5 42
11:45 1025 30.27 855 25.25 25.4 77.7 28 5.8 42.5
11:50 1025 30.27 855 25.25 24.5 76 28 5.2 41.3
11:55 1025 30.27 855 25.25 23.5 74.3 30 5.1 41.1
12:00 1025 30.27 855 25.25 23.9 75.1 27 4.2 39.6
12:05 1025 30.27 855 25.25 24.6 76.2 27 4.5 40
12:10 1025 30.27 855 25.25 24.8 76.7 28 5.3 41.5
12:15 1025 30.27 855 25.25 24.9 76.9 29 5.8 42.4
12:20 1025 30.27 855 25.25 24.7 76.5 28 5.2 41.3
12:25 1025 30.27 855 25.25 25 77 29 5.8 42.4
12:30 1025 30.27 855 25.25 24.3 75.7 27 4.6 40.2
12:35 1025 30.27 855 25.25 24.2 75.6 27 4.1 39.3
12:40 1025 30.27 855 25.25 25.2 77.4 25 4.1 39.4
12:45 1025 30.27 855 25.25 25.7 78.2 25 4.2 39.6
12:50 1025 30.27 855 25.25 26.3 79.3 26 5.7 42.3
12:55 1025 30.27 855 25.25 26.9 80.5 22 4 39.2
13:00 1025 30.27 855 25.25 26.5 79.6 24 4.7 40.5
13:05 1025 30.27 854 25.22 25.6 78 25 4.6 40.2
13:10 1025 30.27 854 25.22 26.4 79.5 21 2.5 36.5
13:15 1025 30.27 854 25.22 27.1 80.9 23 4.6 40.3
13:20 1025 30.27 854 25.22 27.2 81 20 2.4 36.3
13:25 1025 30.27 854 25.22 26.4 79.5 23 3.7 38.6
13:30 1025 30.27 854 25.22 26.9 80.3 21 3.1 37.6
13:35 1025 30.27 854 25.22 26.7 80 19 1.4 34.6
13:40 1025 30.27 854 25.22 26.9 80.4 18 0.9 33.6
13:45 1025 30.27 854 25.22 28.1 82.6 15 -0.8 30.5
13:50 1025 30.27 854 25.22 28.3 83 16 0.1 32.2
13:55 1025 30.27 854 25.22 28.5 83.3 13 -2.1 28.2
14:00 1025 30.27 854 25.22 28.2 82.7 14 -1.1 29.9
14:05 1025 30.27 854 25.22 27.3 81.2 14 -1.9 28.7
14:10 1025 30.27 854 25.22 27.3 81.2 16 -0.2 31.7
14:15 1025 30.27 854 25.22 27.8 82 15 -0.9 30.3
14:20 1025 30.27 854 25.22 28 82.4 15 -0.7 30.8
14:25 1025 30.27 854 25.22 27.9 82.3 15 -0.8 30.6
14:30 1025 30.27 854 25.22 28.7 83.6 15 -0.3 31.5
14:35 1025 30.27 854 25.22 28.6 83.5 15 0.1 32.2
14:40 1025 30.27 854 25.22 28.1 82.5 15 -0.7 30.7
14:45 1025 30.27 854 25.22 28.1 82.5 15 -0.2 31.6
14:50 1025 30.27 854 25.22 27.3 81.2 18 0.8 33.5
14:55 1025 30.27 854 25.22 27.5 81.5 15 -0.8 30.5
15:00 1025 30.27 854 25.22 27 80.7 16 -0.8 30.6
15:05 1025 30.27 854 25.22 28.1 82.5 17 0.8 33.4
15:10 1025 30.27 854 25.22 28.6 83.4 14 -1 30.3
15:15 1025 30.27 854 25.22 27.6 81.7 16 -0.5 31
15:20 1025 30.27 854 25.22 27.1 80.8 16 -0.9 30.5
15:25 1024 30.24 854 25.22 28.1 82.5 15 -1.1 30
15:30 1024 30.24 854 25.22 28.4 83.2 15 -0.8 30.5
15:35 1024 30.24 854 25.22 27.7 81.8 15 -0.9 30.4
15:40 1024 30.24 854 25.22 28.7 83.6 15 -0.4 31.3
15:45 1024 30.24 854 25.22 28.6 83.5 15 -0.3 31.5
15:50 1024 30.24 854 25.22 28.5 83.2 15 -0.4 31.2
15:55 1024 30.24 854 25.22 29 84.2 14 -0.4 31.3
16:00 1024 30.24 854 25.22 29.3 84.8 14 -0.5 31
16:05 1024 30.24 853 25.19 29 84.3 15 -0.1 31.8
16:10 1024 30.24 853 25.19 28.4 83.2 15 -0.6 30.9
16:15 1024 30.24 853 25.19 29.3 84.7 15 0.6 33.1
16:20 1024 30.24 853 25.19 29.6 85.3 15 0.2 32.3
16:25 1024 30.24 853 25.19 29.4 84.9 15 0.4 32.7
16:30 1024 30.24 853 25.19 29.6 85.3 15 0.3 32.6
16:35 1024 30.24 853 25.19 29.6 85.3 15 0.5 32.9
16:40 1024 30.24 853 25.19 29.7 85.4 15 0.6 33
16:45 1024 30.24 853 25.19 29.7 85.5 15 0.8 33.5
16:50 1024 30.24 853 25.19 29 84.3 15 0.5 32.9
16:55 1024 30.24 853 25.19 29.2 84.5 16 1 33.8
17:00 1024 30.24 853 25.19 28.5 83.2 17 1 33.9
17:05 1024 30.24 853 25.19 29 84.3 15 0.3 32.6
17:10 1024 30.24 853 25.19 29.6 85.3 15 0.7 33.2
17:15 1024 30.24 853 25.19 29.8 85.6 16 1.2 34.2
17:20 1024 30.24 853 25.19 30 85.9 15 0.8 33.4
17:25 1024 30.24 853 25.19 30 86.1 15 1 33.9
17:30 1024 30.24 853 25.19 30.4 86.8 15 1.2 34.2
17:35 1024 30.24 853 25.19 29.7 85.5 15 0.3 32.6
17:40 1024 30.24 853 25.19 29.8 85.6 16 1.2 34.2
17:45 1024 30.24 853 25.19 29.6 85.3 15 0.7 33.3
17:50 1024 30.24 853 25.19 29.6 85.4 15 0.7 33.2
17:55 1024 30.24 853 25.19 29.8 85.6 17 2.3 36.1
18:00 1024 30.24 853 25.19 29.9 85.8 15 0.8 33.4
18:05 1023 30.21 853 25.19 29.2 84.6 15 0.2 32.4
18:10 1023 30.21 853 25.19 29.2 84.5 16 1.1 33.9
18:15 1023 30.21 853 25.19 28.6 83.5 15 0.1 32.2
18:20 1023 30.21 853 25.19 28.5 83.2 17 1.7 35.1
18:25 1023 30.21 852 25.16 28.5 83.2 17 1.1 33.9
18:30 1023 30.21 852 25.16 28.9 84 16 1.1 34
18:35 1023 30.21 852 25.16 28.2 82.8 17 0.9 33.6
18:40 1023 30.21 852 25.16 28.2 82.8 17 0.8 33.4
18:45 1023 30.21 852 25.16 28.3 83 17 1.6 34.9
18:50 1023 30.21 853 25.19 28 82.4 17 1.3 34.4
18:55 1023 30.21 853 25.19 28.1 82.6 18 1.8 35.3
19:00 1023 30.21 853 25.19 28 82.5 18 1.5 34.7
19:05 1023 30.21 853 25.19 28.6 83.4 15 0.1 32.2
19:10 1023 30.21 853 25.19 28.9 84 17 1.8 35.3
19:15 1023 30.21 853 25.19 28.2 82.7 18 1.7 35
19:20 1023 30.21 853 25.19 27.9 82.2 18 1.4 34.6
19:25 1023 30.21 853 25.19 28.2 82.8 17 1 33.8
19:30 1023 30.21 853 25.19 27.7 81.9 18 1.6 35
19:35 1023 30.21 852 25.16 27.3 81.1 19 2.3 36.1
19:40 1023 30.21 852 25.16 27.1 80.7 18 1.3 34.3
19:45 1023 30.21 852 25.16 27 80.5 19 1.8 35.3
19:50 1023 30.21 852 25.16 27 80.5 20 2.2 35.9
19:55 1023 30.21 852 25.16 26.8 80.3 18 0.9 33.6
20:00 1023 30.21 852 25.16 26.8 80.2 19 1.3 34.4
20:05 1023 30.21 852 25.16 26.7 80.1 19 1.2 34.2
20:10 1023 30.21 852 25.16 26.6 79.8 19 1.5 34.7
20:15 1023 30.21 852 25.16 26.6 79.8 20 2.2 35.9
20:20 1023 30.21 852 25.16 26.5 79.6 19 1.6 34.8
20:25 1023 30.21 852 25.16 26.4 79.4 20 1.6 35
20:30 1023 30.21 852 25.16 26.2 79.1 21 2.5 36.5
20:35 1023 30.21 852 25.16 26 78.9 21 2.2 36
20:40 1023 30.21 853 25.19 25.8 78.4 22 2.8 37
20:45 1023 30.21 853 25.19 25.6 78 24 3.9 39
20:50 1023 30.21 853 25.19 25.5 77.9 26 4.7 40.5
20:55 1023 30.21 853 25.19 25.4 77.7 34 8.4 47.2
21:00 1023 30.21 853 25.19 24.4 76 44 11.6 52.9
21:05 1023 30.21 853 25.19 23.3 73.9 42 9.8 49.6
21:10 1023 30.21 853 25.19 22.5 72.5 47 11 51.7
21:15 1024 30.24 853 25.19 21.9 71.3 49 10.8 51.4
21:20 1024 30.24 853 25.19 21.6 70.9 39 7.1 44.8
21:25 1024 30.24 853 25.19 21.6 70.8 39 7.3 45.2
21:30 1024 30.24 853 25.19 21 69.9 42 7.8 46.1
21:35 1024 30.24 853 25.19 20.6 69 42 7.4 45.2
21:40 1024 30.24 853 25.19 20.4 68.7 38 5.8 42.4
21:45 1024 30.24 853 25.19 20.7 69.3 35 5 40.9
21:50 1024 30.24 853 25.19 21 69.8 34 4.8 40.7
21:55 1024 30.24 853 25.19 21.2 70.2 35 5.3 41.6
22:00 1024 30.24 853 25.19 21 69.8 35 5.3 41.5
22:05 1024 30.24 853 25.19 20.9 69.6 36 5.5 41.9
22:10 1024 30.24 853 25.19 20.8 69.4 36 5.4 41.7
22:15 1024 30.24 853 25.19 20.5 68.9 37 5.6 42.1
22:20 1024 30.24 853 25.19 20 67.9 39 5.7 42.3
22:25 1024 30.24 853 25.19 19.6 67.2 40 5.6 42.1
22:30 1024 30.24 853 25.19 19.2 66.6 40 5.4 41.6
22:35 1024 30.24 854 25.22 19.3 66.7 41 6 42.8
22:40 1024 30.24 854 25.22 19.2 66.5 40 5.5 41.9
22:45 1025 30.27 854 25.22 19 66.2 41 5.7 42.3
22:50 1024 30.24 854 25.22 19 66.3 41 5.5 41.9
22:55 1024 30.24 854 25.22 18.8 65.8 42 5.7 42.2
23:00 1025 30.27 854 25.22 18.5 65.3 44 6.2 43.1
23:05 1025 30.27 854 25.22 18.4 65.2 43 5.8 42.5
23:10 1025 30.27 854 25.22 18.1 64.5 44 5.6 42.1
23:15 1025 30.27 854 25.22 18 64.4 40 4.5 40.1
23:20 1025 30.27 854 25.22 18.6 65.5 39 4.6 40.3
23:25 1025 30.27 854 25.22 18.7 65.7 40 4.9 40.8
23:30 1025 30.27 854 25.22 18.4 65 42 5.3 41.6
23:35 1025 30.27 854 25.22 17.9 64.1 45 5.9 42.7
23:40 1025 30.27 854 25.22 17.5 63.5 47 6.3 43.3
23:45 1025 30.27 854 25.22 17.3 63.2 48 6.4 43.5
23:50 1025 30.27 854 25.22 17.2 62.9 47 5.8 42.5
23:55 1025 30.27 854 25.22 17.3 63.1 43 4.8 40.6
24:00 1025 30.27 854 25.22 17.6 63.6 47 6.2 43.2